Sea Pearl — SVCM6 — position and weather

sailwx.info

Track history (hours):
 
Tides and Currents Weather Stations Pressure Air Temp Water Temp Dewpoint Dewpoint Depression Visibility Wind Speed Wind Dir Waves Ship Positions

Sea Pearl

Last reported at 2017-Dec-13 12:00 UTC. Time now 2018-Jan-23 08:11 UTC.
Position N 31°03' W 117°08'.
Warning: this ship's position is 40 days out of date.

Length 332 m; draft 11.1 m.

Type: Tanker. MMSI: 241465000.

Date/timePositionNaut miles runAvg speedWind from/ knotsBaromVisibWave heightAir tempDewpointWater temp
2017-Dec-13 12:00N 31°03' W 117°08'815.4
2017-Dec-13 11:29N 31°10' W 117°11'715.2
2017-Dec-13 10:59N 31°17' W 117°14'3615.2
2017-Dec-13 08:36N 31°51' W 117°29'315.1
2017-Dec-13 08:23N 31°54' W 117°30'615.1
2017-Dec-13 08:00N 31°59' W 117°33'715.0
2017-Dec-13 07:30N 32°06' W 117°36'714.7
2017-Dec-13 07:01N 32°13' W 117°39'714.7
2017-Dec-13 06:31N 32°20' W 117°42'713.9
2017-Dec-13 06:00N 32°27' W 117°45'713.2
2017-Dec-13 05:30N 32°33' W 117°47'713.5
2017-Dec-13 05:00N 32°39' W 117°50'713.7
2017-Dec-13 04:31N 32°46' W 117°53'714.3
2017-Dec-13 04:01N 32°52' W 117°55'714.5
2017-Dec-13 03:31N 32°59' W 117°58'714.8
2017-Dec-13 03:01N 33°06' W 118°01'714.5
2017-Dec-13 02:31N 33°13' W 118°04'612.8
2017-Dec-13 02:00N 33°19' W 118°06'611.9
2017-Dec-13 01:31N 33°25' W 118°09'611.9
2017-Dec-13 01:01N 33°30' W 118°11'611.3
2017-Dec-13 00:30N 33°36' W 118°13'5 9.0
2017-Dec-12 23:59N 33°40' W 118°12'4 3.1
2017-Dec-12 22:42N 33°44' W 118°10'0 0.0
2017-Dec-12 22:18N 33°44' W 118°10'0 0.0
2017-Dec-12 16:48N 33°44' W 118°10'0 0.0
2017-Dec-12 14:24N 33°44' W 118°10'0 0.0
2017-Dec-12 14:00N 33°44' W 118°10'0 0.0
2017-Dec-12 07:48N 33°44' W 118°10'0 0.0
2017-Dec-12 07:30N 33°44' W 118°10'0 0.0
2017-Dec-12 00:42N 33°44' W 118°10'0 0.2
2017-Dec-12 00:30N 33°44' W 118°10'0 0.1
2017-Dec-12 00:00N 33°44' W 118°10'0 0.1
2017-Dec-11 23:12N 33°44' W 118°10'0 0.0
2017-Dec-11 22:42N 33°44' W 118°10'0 0.1
2017-Dec-11 22:18N 33°44' W 118°10'0 0.0
2017-Dec-11 22:00N 33°44' W 118°10'0 0.0
2017-Dec-11 21:30N 33°44' W 118°10'0 0.1
2017-Dec-11 21:00N 33°44' W 118°10'0 0.2
2017-Dec-11 20:30N 33°44' W 118°10'0 0.1
2017-Dec-11 18:18N 33°44' W 118°10'0 0.1
2017-Dec-11 16:03N 33°44' W 118°10'0 0.2
2017-Dec-11 16:00N 33°44' W 118°10'0 0.7
2017-Dec-11 15:30N 33°44' W 118°10'4 5.3
2017-Dec-11 14:51N 33°40' W 118°11'3 5.7
2017-Dec-11 14:24N 33°38' W 118°10'4 9.7
2017-Dec-11 14:00N 33°34' W 118°09'611.5
2017-Dec-11 13:28N 33°28' W 118°06'1210.8
2017-Dec-11 12:24N 33°18' W 118°01'0 1.0
2017-Dec-11 12:00N 33°17' W 118°01'1 2.7
2017-Dec-11 11:30N 33°16' W 118°00'611.4
2017-Dec-11 11:00N 33°11' W 117°57'5 9.2
2017-Dec-11 10:30N 33°08' W 117°53'1 1.9
2017-Dec-11 10:00N 33°07' W 117°52'1 1.7
2017-Dec-11 09:30N 33°07' W 117°51'1 1.8
2017-Dec-11 09:00N 33°06' W 117°51'1 1.5
2017-Dec-11 08:30N 33°05' W 117°51'1 1.4
2017-Dec-11 07:57N 33°05' W 117°50'1 1.5
2017-Dec-11 07:30N 33°04' W 117°50'1 1.5
2017-Dec-11 07:00N 33°03' W 117°49'1 1.4
2017-Dec-11 06:30N 33°03' W 117°48'1 1.4
2017-Dec-11 06:00N 33°02' W 117°48'1 1.5
2017-Dec-11 05:30N 33°02' W 117°47'1 1.7
2017-Dec-11 05:00N 33°01' W 117°47'1 1.8
2017-Dec-11 04:30N 33°00' W 117°46'1 1.1
2017-Dec-11 04:00N 32°60' W 117°46'0 1.0
2017-Dec-11 03:30N 32°60' W 117°45'0 1.0
2017-Dec-11 03:00N 32°59' W 117°45'0 0.9
2017-Dec-11 02:30N 32°59' W 117°45'0 1.0
2017-Dec-11 02:00N 32°58' W 117°44'0 1.0
2017-Dec-11 01:30N 32°58' W 117°44'0 0.5
2017-Dec-11 01:00N 32°58' W 117°44'0 0.5
2017-Dec-11 00:30N 32°58' W 117°44'0 0.6
2017-Dec-11 00:00N 32°57' W 117°44'0 0.6
2017-Dec-10 23:30N 32°57' W 117°44'0 0.7
2017-Dec-10 23:00N 32°57' W 117°44'0 0.7
2017-Dec-10 22:30N 32°56' W 117°43'0 0.6
2017-Dec-10 22:00N 32°56' W 117°43'0 0.9
2017-Dec-10 21:30N 32°56' W 117°43'1 1.6
2017-Dec-10 21:00N 32°55' W 117°43'1 1.4
2017-Dec-10 20:30N 32°55' W 117°43'1 1.2
2017-Dec-10 20:00N 32°55' W 117°44'1 1.6
2017-Dec-10 19:30N 32°55' W 117°45'1 1.3
2017-Dec-10 19:00N 32°55' W 117°46'0 0.9
2017-Dec-10 18:30N 32°55' W 117°46'0 0.6
2017-Dec-10 18:00N 32°55' W 117°47'0 0.5
2017-Dec-10 17:30N 32°55' W 117°47'0 0.5
2017-Dec-10 17:00N 32°56' W 117°47'0 0.5
2017-Dec-10 16:30N 32°56' W 117°47'0 0.7
2017-Dec-10 16:00N 32°56' W 117°47'0 0.6
2017-Dec-10 15:30N 32°56' W 117°48'0 0.5
2017-Dec-10 15:00N 32°56' W 117°48'0 0.5
2017-Dec-10 14:30N 32°57' W 117°48'0 0.5
2017-Dec-10 14:00N 32°57' W 117°48'0 0.6
2017-Dec-10 13:30N 32°57' W 117°48'1 1.1
2017-Dec-10 13:00N 32°58' W 117°49'1 2.3
2017-Dec-10 12:30N 32°58' W 117°50'1 2.8
2017-Dec-10 12:00N 32°60' W 117°51'2 3.9
2017-Dec-10 11:30N 33°01' W 117°52'3 5.3
2017-Dec-10 11:00N 33°03' W 117°53'2 5.0
2017-Dec-10 10:30N 33°06' W 117°55'2 4.7
2017-Dec-10 10:00N 33°08' W 117°57'1 2.5
2017-Dec-10 09:30N 33°09' W 117°57'0 0.6
2017-Dec-10 09:00N 33°09' W 117°57'0 0.5
2017-Dec-10 08:30N 33°09' W 117°57'0 0.5
2017-Dec-10 08:00N 33°09' W 117°57'1 1.8
2017-Dec-10 07:30N 33°10' W 117°56'2 3.5
2017-Dec-10 07:00N 33°10' W 117°54'4 8.0
2017-Dec-10 06:30N 33°11' W 117°50'3 5.2
2017-Dec-10 06:00N 33°11' W 117°46'1 1.2
2017-Dec-10 05:30N 33°10' W 117°46'0 0.2
2017-Dec-10 05:00N 33°10' W 117°46'0 0.1
2017-Dec-10 04:30N 33°10' W 117°46'0 0.2
2017-Dec-10 04:00N 33°10' W 117°46'0 0.2
2017-Dec-10 03:30N 33°10' W 117°46'0 0.2
2017-Dec-10 03:00N 33°10' W 117°46'0 0.1
2017-Dec-10 02:30N 33°10' W 117°46'0 0.0
2017-Dec-10 02:00N 33°10' W 117°46'0 0.1
2017-Dec-10 01:30N 33°10' W 117°46'0 0.1
2017-Dec-10 01:00N 33°10' W 117°46'0 0.2
2017-Dec-10 00:30N 33°10' W 117°46'0 0.2
2017-Dec-10 00:00N 33°11' W 117°46'0 0.2
2017-Dec-09 23:30N 33°11' W 117°46'0 0.2
2017-Dec-09 23:00N 33°11' W 117°46'0 0.3
2017-Dec-09 22:30N 33°11' W 117°47'0 0.4
2017-Dec-09 22:00N 33°11' W 117°47'0 0.3
2017-Dec-09 21:30N 33°11' W 117°47'0 0.2
2017-Dec-09 21:00N 33°11' W 117°47'0 0.4
2017-Dec-09 20:30N 33°11' W 117°47'0 0.4
2017-Dec-09 20:01N 33°11' W 117°48'0 0.5
2017-Dec-09 19:30N 33°11' W 117°48'0 0.4
2017-Dec-09 19:00N 33°11' W 117°48'0 0.5
2017-Dec-09 18:30N 33°11' W 117°48'0 0.3
2017-Dec-09 18:01N 33°11' W 117°49'0 0.3
2017-Dec-09 17:30N 33°11' W 117°49'0 0.5
2017-Dec-09 17:00N 33°10' W 117°49'0 0.5
2017-Dec-09 16:30N 33°10' W 117°49'0 0.5
2017-Dec-09 16:01N 33°10' W 117°49'0 0.5
2017-Dec-09 15:30N 33°10' W 117°49'0 0.6
2017-Dec-09 15:00N 33°10' W 117°50'0 0.4
2017-Dec-09 14:30N 33°09' W 117°50'0 0.5
2017-Dec-09 14:00N 33°09' W 117°50'0 0.4
2017-Dec-09 13:30N 33°09' W 117°50'0 0.4
2017-Dec-09 13:00N 33°09' W 117°50'0 0.4
2017-Dec-09 12:30N 33°09' W 117°50'0 0.5
2017-Dec-09 12:00N 33°08' W 117°50'0 0.4
2017-Dec-09 11:30N 33°08' W 117°50'0 0.3
2017-Dec-09 11:00N 33°08' W 117°50'0 0.3
2017-Dec-09 10:31N 33°08' W 117°50'0 0.2
2017-Dec-09 10:00N 33°08' W 117°50'0 0.1
2017-Dec-09 09:30N 33°08' W 117°50'0 0.2
2017-Dec-09 09:00N 33°08' W 117°50'0 0.2
2017-Dec-09 08:30N 33°08' W 117°50'0 0.3
2017-Dec-09 08:00N 33°07' W 117°51'0 0.5
2017-Dec-09 07:30N 33°07' W 117°51'0 0.5
2017-Dec-09 07:01N 33°07' W 117°51'0 0.5
2017-Dec-09 06:30N 33°07' W 117°51'0 0.6
2017-Dec-09 06:00N 33°07' W 117°52'0 0.6
2017-Dec-09 05:30N 33°07' W 117°52'0 0.4
2017-Dec-09 05:00N 33°06' W 117°52'0 0.5
2017-Dec-09 04:30N 33°06' W 117°52'0 0.5
2017-Dec-09 04:00N 33°06' W 117°53'0 0.7
2017-Dec-09 03:31N 33°06' W 117°53'0 0.6
2017-Dec-09 03:01N 33°06' W 117°53'0 0.8
2017-Dec-09 02:30N 33°06' W 117°54'0 0.8
2017-Dec-09 02:00N 33°07' W 117°54'0 0.9
2017-Dec-09 01:30N 33°06' W 117°55'0 0.9
2017-Dec-09 01:00N 33°06' W 117°55'1 1.0
2017-Dec-09 00:31N 33°06' W 117°56'1 1.1
2017-Dec-09 00:00N 33°06' W 117°57'1 1.1
2017-Dec-08 23:30N 33°06' W 117°57'0 1.0
2017-Dec-08 23:01N 33°06' W 117°58'0 0.7
2017-Dec-08 22:30N 33°06' W 117°58'0 0.6
2017-Dec-08 22:00N 33°05' W 117°58'0 0.5
2017-Dec-08 21:31N 33°05' W 117°59'0 0.3
2017-Dec-08 21:00N 33°05' W 117°59'0 0.2
2017-Dec-08 20:30N 33°05' W 117°59'0 0.1
2017-Dec-08 20:00N 33°05' W 117°59'0 0.2
2017-Dec-08 19:30N 33°05' W 117°59'0 0.1
2017-Dec-08 19:01N 33°05' W 117°59'0 0.1
2017-Dec-08 18:30N 33°05' W 117°59'0 0.1
2017-Dec-08 18:00N 33°05' W 117°59'0 0.2
2017-Dec-08 17:30N 33°05' W 117°59'0 0.1
2017-Dec-08 17:00N 33°05' W 117°59'0 0.2
2017-Dec-08 16:31N 33°05' W 117°59'0 0.3
2017-Dec-08 16:00N 33°05' W 117°59'0 0.3
2017-Dec-08 15:12N 33°05' W 117°59'0 0.4
2017-Dec-08 15:01N 33°05' W 117°59'0 0.4
2017-Dec-08 14:30N 33°06' W 117°58'0 0.4
2017-Dec-08 14:00N 33°06' W 117°58'0 0.2
2017-Dec-08 13:30N 33°06' W 117°58'0 0.3
2017-Dec-08 13:00N 33°06' W 117°58'0 0.2
2017-Dec-08 12:30N 33°06' W 117°58'0 0.2
2017-Dec-08 12:00N 33°06' W 117°58'0 0.2
2017-Dec-08 11:28N 33°06' W 117°58'0 0.1
2017-Dec-08 11:00N 33°06' W 117°58'0 0.1
2017-Dec-08 10:15N 33°06' W 117°58'0 0.1
2017-Dec-08 09:36N 33°06' W 117°58'0 0.1
2017-Dec-08 09:30N 33°06' W 117°58'0 0.1
2017-Dec-08 08:47N 33°06' W 117°58'0 0.2
2017-Dec-08 08:30N 33°06' W 117°58'0 0.1
2017-Dec-08 08:00N 33°06' W 117°58'0 0.2
2017-Dec-08 07:30N 33°06' W 117°58'0 0.3
2017-Dec-08 07:01N 33°06' W 117°57'0 0.4
2017-Dec-08 06:30N 33°06' W 117°57'0 0.3
2017-Dec-08 06:00N 33°06' W 117°57'0 0.2
2017-Dec-08 05:30N 33°06' W 117°57'0 0.3
2017-Dec-08 05:01N 33°06' W 117°57'0 0.5
2017-Dec-08 04:31N 33°06' W 117°57'0 0.5
2017-Dec-08 04:00N 33°06' W 117°57'0 0.4
2017-Dec-08 03:31N 33°06' W 117°56'0 0.5
2017-Dec-08 03:00N 33°07' W 117°56'0 0.6
2017-Dec-08 02:30N 33°07' W 117°56'0 0.9
2017-Dec-08 02:00N 33°07' W 117°56'0 1.0
2017-Dec-08 01:30N 33°08' W 117°56'0 0.8
2017-Dec-08 01:00N 33°08' W 117°55'0 0.7
2017-Dec-08 00:30N 33°08' W 117°55'0 0.8
2017-Dec-08 00:00N 33°08' W 117°55'0 0.9
2017-Dec-07 23:30N 33°09' W 117°54'0 0.9
2017-Dec-07 23:00N 33°09' W 117°54'0 0.3
2017-Dec-07 22:30N 33°09' W 117°54'0 0.3
2017-Dec-07 22:00N 33°09' W 117°54'0 0.2
2017-Dec-07 21:30N 33°09' W 117°54'0 0.2
2017-Dec-07 21:01N 33°09' W 117°54'0 0.1
2017-Dec-07 20:30N 33°09' W 117°54'0 0.2
2017-Dec-07 20:00N 33°09' W 117°54'0 0.2
2017-Dec-07 19:30N 33°09' W 117°54'0 0.2
2017-Dec-07 19:00N 33°09' W 117°54'0 0.2
2017-Dec-07 18:30N 33°09' W 117°54'0 0.3
2017-Dec-07 18:00N 33°09' W 117°54'0 0.4
2017-Dec-07 17:30N 33°10' W 117°54'0 0.3
2017-Dec-07 17:00N 33°10' W 117°54'0 0.4
2017-Dec-07 16:30N 33°10' W 117°54'0 0.3
2017-Dec-07 16:00N 33°10' W 117°54'0 0.3
2017-Dec-07 15:30N 33°10' W 117°54'0 0.2
2017-Dec-07 15:00N 33°10' W 117°54'0 0.2
2017-Dec-07 14:30N 33°10' W 117°54'0 0.2
2017-Dec-07 14:00N 33°10' W 117°54'0 0.1
2017-Dec-07 13:30N 33°10' W 117°54'0 0.1
2017-Dec-07 13:00N 33°10' W 117°54'0 0.2
2017-Dec-07 12:30N 33°10' W 117°54'0 0.0
2017-Dec-07 12:00N 33°10' W 117°54'0 0.1
2017-Dec-07 11:30N 33°10' W 117°54'0 0.1
2017-Dec-07 11:00N 33°10' W 117°54'0 0.1
2017-Dec-07 10:30N 33°10' W 117°54'0 0.1
2017-Dec-07 10:00N 33°10' W 117°54'0 0.1
2017-Dec-07 09:30N 33°10' W 117°54'0 0.1
2017-Dec-07 09:00N 33°10' W 117°54'0 0.2
2017-Dec-07 08:30N 33°10' W 117°54'0 0.2
2017-Dec-07 08:01N 33°11' W 117°54'0 0.3
2017-Dec-07 07:30N 33°11' W 117°54'0 0.3
2017-Dec-07 07:01N 33°11' W 117°54'0 0.3
2017-Dec-07 06:31N 33°11' W 117°54'0 0.7
2017-Dec-07 06:01N 33°11' W 117°54'2 3.8
2017-Dec-07 05:31N 33°09' W 117°55'3 5.0
2017-Dec-07 05:01N 33°07' W 117°53'1 2.5
2017-Dec-07 04:30N 33°07' W 117°52'1 1.0
2017-Dec-07 04:00N 33°06' W 117°51'1 1.4
2017-Dec-07 03:30N 33°06' W 117°51'1 1.8
2017-Dec-07 03:01N 33°05' W 117°50'1 1.4
2017-Dec-07 02:30N 33°05' W 117°49'1 1.6
2017-Dec-07 02:00N 33°04' W 117°49'1 1.6
2017-Dec-07 01:30N 33°04' W 117°48'1 1.2
2017-Dec-07 01:00N 33°03' W 117°48'0 0.7
2017-Dec-07 00:30N 33°03' W 117°47'0 0.5
2017-Dec-07 00:00N 33°03' W 117°47'0 0.5
2017-Dec-06 23:31N 33°03' W 117°47'0 0.7
2017-Dec-06 23:01N 33°03' W 117°47'1 1.3
2017-Dec-06 22:30N 33°02' W 117°47'1 1.1
2017-Dec-06 22:00N 33°02' W 117°46'1 1.1
2017-Dec-06 21:30N 33°01' W 117°46'1 1.1
2017-Dec-06 21:00N 33°01' W 117°46'  
2017-Dec-04 07:47N 30°46' W 120°07'3113.5
2017-Dec-04 05:29N 30°40' W 120°42'  
Track history (hours):
 
Tides and Currents Weather Stations Pressure Air Temp Water Temp Dewpoint Dewpoint Depression Visibility Wind Speed Wind Dir Waves Ship Positions

Sea Pearl

Last reported at 2017-Dec-13 12:00 UTC. Time now 2018-Jan-23 08:11 UTC.
Position N 31°03' W 117°08'.
Warning: this ship's position is 40 days out of date.

Length 332 m; draft 11.1 m.

Type: Tanker. MMSI: 241465000.

Date/timePositionNaut miles runAvg speedWind from/ knotsBaromVisibWave heightAir tempDewpointWater temp
2017-Dec-13 12:00N 31°03' W 117°08'815.4
2017-Dec-13 11:29N 31°10' W 117°11'715.2
2017-Dec-13 10:59N 31°17' W 117°14'3615.2
2017-Dec-13 08:36N 31°51' W 117°29'315.1
2017-Dec-13 08:23N 31°54' W 117°30'615.1
2017-Dec-13 08:00N 31°59' W 117°33'715.0
2017-Dec-13 07:30N 32°06' W 117°36'714.7
2017-Dec-13 07:01N 32°13' W 117°39'714.7
2017-Dec-13 06:31N 32°20' W 117°42'713.9
2017-Dec-13 06:00N 32°27' W 117°45'713.2
2017-Dec-13 05:30N 32°33' W 117°47'713.5
2017-Dec-13 05:00N 32°39' W 117°50'713.7
2017-Dec-13 04:31N 32°46' W 117°53'714.3
2017-Dec-13 04:01N 32°52' W 117°55'714.5
2017-Dec-13 03:31N 32°59' W 117°58'714.8
2017-Dec-13 03:01N 33°06' W 118°01'714.5
2017-Dec-13 02:31N 33°13' W 118°04'612.8
2017-Dec-13 02:00N 33°19' W 118°06'611.9
2017-Dec-13 01:31N 33°25' W 118°09'611.9
2017-Dec-13 01:01N 33°30' W 118°11'611.3
2017-Dec-13 00:30N 33°36' W 118°13'5 9.0
2017-Dec-12 23:59N 33°40' W 118°12'4 3.1
2017-Dec-12 22:42N 33°44' W 118°10'0 0.0
2017-Dec-12 22:18N 33°44' W 118°10'0 0.0
2017-Dec-12 16:48N 33°44' W 118°10'0 0.0
2017-Dec-12 14:24N 33°44' W 118°10'0 0.0
2017-Dec-12 14:00N 33°44' W 118°10'0 0.0
2017-Dec-12 07:48N 33°44' W 118°10'0 0.0
2017-Dec-12 07:30N 33°44' W 118°10'0 0.0
2017-Dec-12 00:42N 33°44' W 118°10'0 0.2
2017-Dec-12 00:30N 33°44' W 118°10'0 0.1
2017-Dec-12 00:00N 33°44' W 118°10'0 0.1
2017-Dec-11 23:12N 33°44' W 118°10'0 0.0
2017-Dec-11 22:42N 33°44' W 118°10'0 0.1
2017-Dec-11 22:18N 33°44' W 118°10'0 0.0
2017-Dec-11 22:00N 33°44' W 118°10'0 0.0
2017-Dec-11 21:30N 33°44' W 118°10'0 0.1
2017-Dec-11 21:00N 33°44' W 118°10'0 0.2
2017-Dec-11 20:30N 33°44' W 118°10'0 0.1
2017-Dec-11 18:18N 33°44' W 118°10'0 0.1
2017-Dec-11 16:03N 33°44' W 118°10'0 0.2
2017-Dec-11 16:00N 33°44' W 118°10'0 0.7
2017-Dec-11 15:30N 33°44' W 118°10'4 5.3
2017-Dec-11 14:51N 33°40' W 118°11'3 5.7
2017-Dec-11 14:24N 33°38' W 118°10'4 9.7
2017-Dec-11 14:00N 33°34' W 118°09'611.5
2017-Dec-11 13:28N 33°28' W 118°06'1210.8
2017-Dec-11 12:24N 33°18' W 118°01'0 1.0
2017-Dec-11 12:00N 33°17' W 118°01'1 2.7
2017-Dec-11 11:30N 33°16' W 118°00'611.4
2017-Dec-11 11:00N 33°11' W 117°57'5 9.2
2017-Dec-11 10:30N 33°08' W 117°53'1 1.9
2017-Dec-11 10:00N 33°07' W 117°52'1 1.7
2017-Dec-11 09:30N 33°07' W 117°51'1 1.8
2017-Dec-11 09:00N 33°06' W 117°51'1 1.5
2017-Dec-11 08:30N 33°05' W 117°51'1 1.4
2017-Dec-11 07:57N 33°05' W 117°50'1 1.5
2017-Dec-11 07:30N 33°04' W 117°50'1 1.5
2017-Dec-11 07:00N 33°03' W 117°49'1 1.4
2017-Dec-11 06:30N 33°03' W 117°48'1 1.4
2017-Dec-11 06:00N 33°02' W 117°48'1 1.5
2017-Dec-11 05:30N 33°02' W 117°47'1 1.7
2017-Dec-11 05:00N 33°01' W 117°47'1 1.8
2017-Dec-11 04:30N 33°00' W 117°46'1 1.1
2017-Dec-11 04:00N 32°60' W 117°46'0 1.0
2017-Dec-11 03:30N 32°60' W 117°45'0 1.0
2017-Dec-11 03:00N 32°59' W 117°45'0 0.9
2017-Dec-11 02:30N 32°59' W 117°45'0 1.0
2017-Dec-11 02:00N 32°58' W 117°44'0 1.0
2017-Dec-11 01:30N 32°58' W 117°44'0 0.5
2017-Dec-11 01:00N 32°58' W 117°44'0 0.5
2017-Dec-11 00:30N 32°58' W 117°44'0 0.6
2017-Dec-11 00:00N 32°57' W 117°44'0 0.6
2017-Dec-10 23:30N 32°57' W 117°44'0 0.7
2017-Dec-10 23:00N 32°57' W 117°44'0 0.7
2017-Dec-10 22:30N 32°56' W 117°43'0 0.6
2017-Dec-10 22:00N 32°56' W 117°43'0 0.9
2017-Dec-10 21:30N 32°56' W 117°43'1 1.6
2017-Dec-10 21:00N 32°55' W 117°43'1 1.4
2017-Dec-10 20:30N 32°55' W 117°43'1 1.2
2017-Dec-10 20:00N 32°55' W 117°44'1 1.6
2017-Dec-10 19:30N 32°55' W 117°45'1 1.3
2017-Dec-10 19:00N 32°55' W 117°46'0 0.9
2017-Dec-10 18:30N 32°55' W 117°46'0 0.6
2017-Dec-10 18:00N 32°55' W 117°47'0 0.5
2017-Dec-10 17:30N 32°55' W 117°47'0 0.5
2017-Dec-10 17:00N 32°56' W 117°47'0 0.5
2017-Dec-10 16:30N 32°56' W 117°47'0 0.7
2017-Dec-10 16:00N 32°56' W 117°47'0 0.6
2017-Dec-10 15:30N 32°56' W 117°48'0 0.5
2017-Dec-10 15:00N 32°56' W 117°48'0 0.5
2017-Dec-10 14:30N 32°57' W 117°48'0 0.5
2017-Dec-10 14:00N 32°57' W 117°48'0 0.6
2017-Dec-10 13:30N 32°57' W 117°48'1 1.1
2017-Dec-10 13:00N 32°58' W 117°49'1 2.3
2017-Dec-10 12:30N 32°58' W 117°50'1 2.8
2017-Dec-10 12:00N 32°60' W 117°51'2 3.9
2017-Dec-10 11:30N 33°01' W 117°52'3 5.3
2017-Dec-10 11:00N 33°03' W 117°53'2 5.0
2017-Dec-10 10:30N 33°06' W 117°55'2 4.7
2017-Dec-10 10:00N 33°08' W 117°57'1 2.5
2017-Dec-10 09:30N 33°09' W 117°57'0 0.6
2017-Dec-10 09:00N 33°09' W 117°57'0 0.5
2017-Dec-10 08:30N 33°09' W 117°57'0 0.5
2017-Dec-10 08:00N 33°09' W 117°57'1 1.8
2017-Dec-10 07:30N 33°10' W 117°56'2 3.5
2017-Dec-10 07:00N 33°10' W 117°54'4 8.0
2017-Dec-10 06:30N 33°11' W 117°50'3 5.2
2017-Dec-10 06:00N 33°11' W 117°46'1 1.2
2017-Dec-10 05:30N 33°10' W 117°46'0 0.2
2017-Dec-10 05:00N 33°10' W 117°46'0 0.1
2017-Dec-10 04:30N 33°10' W 117°46'0 0.2
2017-Dec-10 04:00N 33°10' W 117°46'0 0.2
2017-Dec-10 03:30N 33°10' W 117°46'0 0.2
2017-Dec-10 03:00N 33°10' W 117°46'0 0.1
2017-Dec-10 02:30N 33°10' W 117°46'0 0.0
2017-Dec-10 02:00N 33°10' W 117°46'0 0.1
2017-Dec-10 01:30N 33°10' W 117°46'0 0.1
2017-Dec-10 01:00N 33°10' W 117°46'0 0.2
2017-Dec-10 00:30N 33°10' W 117°46'0 0.2
2017-Dec-10 00:00N 33°11' W 117°46'0 0.2
2017-Dec-09 23:30N 33°11' W 117°46'0 0.2
2017-Dec-09 23:00N 33°11' W 117°46'0 0.3
2017-Dec-09 22:30N 33°11' W 117°47'0 0.4
2017-Dec-09 22:00N 33°11' W 117°47'0 0.3
2017-Dec-09 21:30N 33°11' W 117°47'0 0.2
2017-Dec-09 21:00N 33°11' W 117°47'0 0.4
2017-Dec-09 20:30N 33°11' W 117°47'0 0.4
2017-Dec-09 20:01N 33°11' W 117°48'0 0.5
2017-Dec-09 19:30N 33°11' W 117°48'0 0.4
2017-Dec-09 19:00N 33°11' W 117°48'0 0.5
2017-Dec-09 18:30N 33°11' W 117°48'0 0.3
2017-Dec-09 18:01N 33°11' W 117°49'0 0.3
2017-Dec-09 17:30N 33°11' W 117°49'0 0.5
2017-Dec-09 17:00N 33°10' W 117°49'0 0.5
2017-Dec-09 16:30N 33°10' W 117°49'0 0.5
2017-Dec-09 16:01N 33°10' W 117°49'0 0.5
2017-Dec-09 15:30N 33°10' W 117°49'0 0.6
2017-Dec-09 15:00N 33°10' W 117°50'0 0.4
2017-Dec-09 14:30N 33°09' W 117°50'0 0.5
2017-Dec-09 14:00N 33°09' W 117°50'0 0.4
2017-Dec-09 13:30N 33°09' W 117°50'0 0.4
2017-Dec-09 13:00N 33°09' W 117°50'0 0.4
2017-Dec-09 12:30N 33°09' W 117°50'0 0.5
2017-Dec-09 12:00N 33°08' W 117°50'0 0.4
2017-Dec-09 11:30N 33°08' W 117°50'0 0.3
2017-Dec-09 11:00N 33°08' W 117°50'0 0.3
2017-Dec-09 10:31N 33°08' W 117°50'0 0.2
2017-Dec-09 10:00N 33°08' W 117°50'0 0.1
2017-Dec-09 09:30N 33°08' W 117°50'0 0.2
2017-Dec-09 09:00N 33°08' W 117°50'0 0.2
2017-Dec-09 08:30N 33°08' W 117°50'0 0.3
2017-Dec-09 08:00N 33°07' W 117°51'0 0.5
2017-Dec-09 07:30N 33°07' W 117°51'0 0.5
2017-Dec-09 07:01N 33°07' W 117°51'0 0.5
2017-Dec-09 06:30N 33°07' W 117°51'0 0.6
2017-Dec-09 06:00N 33°07' W 117°52'0 0.6
2017-Dec-09 05:30N 33°07' W 117°52'0 0.4
2017-Dec-09 05:00N 33°06' W 117°52'0 0.5
2017-Dec-09 04:30N 33°06' W 117°52'0 0.5
2017-Dec-09 04:00N 33°06' W 117°53'0 0.7
2017-Dec-09 03:31N 33°06' W 117°53'0 0.6
2017-Dec-09 03:01N 33°06' W 117°53'0 0.8
2017-Dec-09 02:30N 33°06' W 117°54'0 0.8
2017-Dec-09 02:00N 33°07' W 117°54'0 0.9
2017-Dec-09 01:30N 33°06' W 117°55'0 0.9
2017-Dec-09 01:00N 33°06' W 117°55'1 1.0
2017-Dec-09 00:31N 33°06' W 117°56'1 1.1
2017-Dec-09 00:00N 33°06' W 117°57'1 1.1
2017-Dec-08 23:30N 33°06' W 117°57'0 1.0
2017-Dec-08 23:01N 33°06' W 117°58'0 0.7
2017-Dec-08 22:30N 33°06' W 117°58'0 0.6
2017-Dec-08 22:00N 33°05' W 117°58'0 0.5
2017-Dec-08 21:31N 33°05' W 117°59'0 0.3
2017-Dec-08 21:00N 33°05' W 117°59'0 0.2
2017-Dec-08 20:30N 33°05' W 117°59'0 0.1
2017-Dec-08 20:00N 33°05' W 117°59'0 0.2
2017-Dec-08 19:30N 33°05' W 117°59'0 0.1
2017-Dec-08 19:01N 33°05' W 117°59'0 0.1
2017-Dec-08 18:30N 33°05' W 117°59'0 0.1
2017-Dec-08 18:00N 33°05' W 117°59'0 0.2
2017-Dec-08 17:30N 33°05' W 117°59'0 0.1
2017-Dec-08 17:00N 33°05' W 117°59'0 0.2
2017-Dec-08 16:31N 33°05' W 117°59'0 0.3
2017-Dec-08 16:00N 33°05' W 117°59'0 0.3
2017-Dec-08 15:12N 33°05' W 117°59'0 0.4
2017-Dec-08 15:01N 33°05' W 117°59'0 0.4
2017-Dec-08 14:30N 33°06' W 117°58'0 0.4
2017-Dec-08 14:00N 33°06' W 117°58'0 0.2
2017-Dec-08 13:30N 33°06' W 117°58'0 0.3
2017-Dec-08 13:00N 33°06' W 117°58'0 0.2
2017-Dec-08 12:30N 33°06' W 117°58'0 0.2
2017-Dec-08 12:00N 33°06' W 117°58'0 0.2
2017-Dec-08 11:28N 33°06' W 117°58'0 0.1
2017-Dec-08 11:00N 33°06' W 117°58'0 0.1
2017-Dec-08 10:15N 33°06' W 117°58'0 0.1
2017-Dec-08 09:36N 33°06' W 117°58'0 0.1
2017-Dec-08 09:30N 33°06' W 117°58'0 0.1
2017-Dec-08 08:47N 33°06' W 117°58'0 0.2
2017-Dec-08 08:30N 33°06' W 117°58'0 0.1
2017-Dec-08 08:00N 33°06' W 117°58'0 0.2
2017-Dec-08 07:30N 33°06' W 117°58'0 0.3
2017-Dec-08 07:01N 33°06' W 117°57'0 0.4
2017-Dec-08 06:30N 33°06' W 117°57'0 0.3
2017-Dec-08 06:00N 33°06' W 117°57'0 0.2
2017-Dec-08 05:30N 33°06' W 117°57'0 0.3
2017-Dec-08 05:01N 33°06' W 117°57'0 0.5
2017-Dec-08 04:31N 33°06' W 117°57'0 0.5
2017-Dec-08 04:00N 33°06' W 117°57'0 0.4
2017-Dec-08 03:31N 33°06' W 117°56'0 0.5
2017-Dec-08 03:00N 33°07' W 117°56'0 0.6
2017-Dec-08 02:30N 33°07' W 117°56'0 0.9
2017-Dec-08 02:00N 33°07' W 117°56'0 1.0
2017-Dec-08 01:30N 33°08' W 117°56'0 0.8
2017-Dec-08 01:00N 33°08' W 117°55'0 0.7
2017-Dec-08 00:30N 33°08' W 117°55'0 0.8
2017-Dec-08 00:00N 33°08' W 117°55'0 0.9
2017-Dec-07 23:30N 33°09' W 117°54'0 0.9
2017-Dec-07 23:00N 33°09' W 117°54'0 0.3
2017-Dec-07 22:30N 33°09' W 117°54'0 0.3
2017-Dec-07 22:00N 33°09' W 117°54'0 0.2
2017-Dec-07 21:30N 33°09' W 117°54'0 0.2
2017-Dec-07 21:01N 33°09' W 117°54'0 0.1
2017-Dec-07 20:30N 33°09' W 117°54'0 0.2
2017-Dec-07 20:00N 33°09' W 117°54'0 0.2
2017-Dec-07 19:30N 33°09' W 117°54'0 0.2
2017-Dec-07 19:00N 33°09' W 117°54'0 0.2
2017-Dec-07 18:30N 33°09' W 117°54'0 0.3
2017-Dec-07 18:00N 33°09' W 117°54'0 0.4
2017-Dec-07 17:30N 33°10' W 117°54'0 0.3
2017-Dec-07 17:00N 33°10' W 117°54'0 0.4
2017-Dec-07 16:30N 33°10' W 117°54'0 0.3
2017-Dec-07 16:00N 33°10' W 117°54'0 0.3
2017-Dec-07 15:30N 33°10' W 117°54'0 0.2
2017-Dec-07 15:00N 33°10' W 117°54'0 0.2
2017-Dec-07 14:30N 33°10' W 117°54'0 0.2
2017-Dec-07 14:00N 33°10' W 117°54'0 0.1
2017-Dec-07 13:30N 33°10' W 117°54'0 0.1
2017-Dec-07 13:00N 33°10' W 117°54'0 0.2
2017-Dec-07 12:30N 33°10' W 117°54'0 0.0
2017-Dec-07 12:00N 33°10' W 117°54'0 0.1
2017-Dec-07 11:30N 33°10' W 117°54'0 0.1
2017-Dec-07 11:00N 33°10' W 117°54'0 0.1
2017-Dec-07 10:30N 33°10' W 117°54'0 0.1
2017-Dec-07 10:00N 33°10' W 117°54'0 0.1
2017-Dec-07 09:30N 33°10' W 117°54'0 0.1
2017-Dec-07 09:00N 33°10' W 117°54'0 0.2
2017-Dec-07 08:30N 33°10' W 117°54'0 0.2
2017-Dec-07 08:01N 33°11' W 117°54'0 0.3
2017-Dec-07 07:30N 33°11' W 117°54'0 0.3
2017-Dec-07 07:01N 33°11' W 117°54'0 0.3
2017-Dec-07 06:31N 33°11' W 117°54'0 0.7
2017-Dec-07 06:01N 33°11' W 117°54'2 3.8
2017-Dec-07 05:31N 33°09' W 117°55'3 5.0
2017-Dec-07 05:01N 33°07' W 117°53'1 2.5
2017-Dec-07 04:30N 33°07' W 117°52'1 1.0
2017-Dec-07 04:00N 33°06' W 117°51'1 1.4
2017-Dec-07 03:30N 33°06' W 117°51'1 1.8
2017-Dec-07 03:01N 33°05' W 117°50'1 1.4
2017-Dec-07 02:30N 33°05' W 117°49'1 1.6
2017-Dec-07 02:00N 33°04' W 117°49'1 1.6
2017-Dec-07 01:30N 33°04' W 117°48'1 1.2
2017-Dec-07 01:00N 33°03' W 117°48'0 0.7
2017-Dec-07 00:30N 33°03' W 117°47'0 0.5
2017-Dec-07 00:00N 33°03' W 117°47'0 0.5
2017-Dec-06 23:31N 33°03' W 117°47'0 0.7
2017-Dec-06 23:01N 33°03' W 117°47'1 1.3
2017-Dec-06 22:30N 33°02' W 117°47'1 1.1
2017-Dec-06 22:00N 33°02' W 117°46'1 1.1
2017-Dec-06 21:30N 33°01' W 117°46'1 1.1
2017-Dec-06 21:00N 33°01' W 117°46'  
2017-Dec-04 07:47N 30°46' W 120°07'3113.5
2017-Dec-04 05:29N 30°40' W 120°42'  

Dump ship's entire track history